sensor_id;sensor_type;location;lat;lon;timestamp;P1;durP1;ratioP1;P2;durP2;ratioP2
75437;SDS011;64015;49.392;15.582;2023-04-25T00:01:17;5.75;;;2.75;;
75437;SDS011;64015;49.392;15.582;2023-04-25T00:03:44;5.63;;;2.05;;
75437;SDS011;64015;49.392;15.582;2023-04-25T00:06:11;4.32;;;2.47;;
75437;SDS011;64015;49.392;15.582;2023-04-25T00:08:37;4.07;;;2.22;;
75437;SDS011;64015;49.392;15.582;2023-04-25T00:11:03;3.92;;;2.38;;
75437;SDS011;64015;49.392;15.582;2023-04-25T00:13:29;4.13;;;2.22;;
75437;SDS011;64015;49.392;15.582;2023-04-25T00:15:54;4.57;;;2.58;;
75437;SDS011;64015;49.392;15.582;2023-04-25T00:18:21;3.45;;;1.83;;
75437;SDS011;64015;49.392;15.582;2023-04-25T00:20:47;5.20;;;2.70;;
75437;SDS011;64015;49.392;15.582;2023-04-25T00:23:14;4.13;;;2.50;;
75437;SDS011;64015;49.392;15.582;2023-04-25T00:25:46;5.65;;;2.85;;
75437;SDS011;64015;49.392;15.582;2023-04-25T00:28:15;5.18;;;2.63;;
75437;SDS011;64015;49.392;15.582;2023-04-25T00:30:41;4.72;;;2.55;;
75437;SDS011;64015;49.392;15.582;2023-04-25T00:33:08;3.88;;;1.80;;
75437;SDS011;64015;49.392;15.582;2023-04-25T00:35:34;5.97;;;2.75;;
75437;SDS011;64015;49.392;15.582;2023-04-25T00:38:00;5.53;;;3.25;;
75437;SDS011;64015;49.392;15.582;2023-04-25T00:40:26;6.32;;;2.85;;
75437;SDS011;64015;49.392;15.582;2023-04-25T00:42:53;4.93;;;2.38;;
75437;SDS011;64015;49.392;15.582;2023-04-25T00:45:19;5.30;;;2.80;;
75437;SDS011;64015;49.392;15.582;2023-04-25T00:47:46;2.97;;;1.40;;
75437;SDS011;64015;49.392;15.582;2023-04-25T00:50:13;4.82;;;2.85;;
75437;SDS011;64015;49.392;15.582;2023-04-25T00:52:40;4.57;;;2.78;;
75437;SDS011;64015;49.392;15.582;2023-04-25T00:55:08;5.13;;;2.35;;
75437;SDS011;64015;49.392;15.582;2023-04-25T01:00:01;9.23;;;3.05;;
75437;SDS011;64015;49.392;15.582;2023-04-25T01:02:27;5.60;;;2.58;;
75437;SDS011;64015;49.392;15.582;2023-04-25T01:04:54;5.97;;;2.65;;
75437;SDS011;64015;49.392;15.582;2023-04-25T01:07:22;7.07;;;2.55;;
75437;SDS011;64015;49.392;15.582;2023-04-25T01:09:48;4.22;;;2.83;;
75437;SDS011;64015;49.392;15.582;2023-04-25T01:12:14;4.63;;;2.50;;
75437;SDS011;64015;49.392;15.582;2023-04-25T01:14:39;6.32;;;3.20;;
75437;SDS011;64015;49.392;15.582;2023-04-25T01:17:05;5.10;;;2.60;;
75437;SDS011;64015;49.392;15.582;2023-04-25T01:19:32;4.00;;;2.50;;
75437;SDS011;64015;49.392;15.582;2023-04-25T01:21:58;5.65;;;2.47;;
75437;SDS011;64015;49.392;15.582;2023-04-25T01:24:24;4.82;;;2.40;;
75437;SDS011;64015;49.392;15.582;2023-04-25T01:26:51;4.93;;;2.95;;
75437;SDS011;64015;49.392;15.582;2023-04-25T01:29:17;5.70;;;3.03;;
75437;SDS011;64015;49.392;15.582;2023-04-25T01:31:44;4.80;;;2.60;;
75437;SDS011;64015;49.392;15.582;2023-04-25T01:34:11;5.03;;;2.03;;
75437;SDS011;64015;49.392;15.582;2023-04-25T01:36:38;5.47;;;2.63;;
75437;SDS011;64015;49.392;15.582;2023-04-25T01:39:03;8.20;;;2.83;;
75437;SDS011;64015;49.392;15.582;2023-04-25T01:41:30;6.45;;;3.20;;
75437;SDS011;64015;49.392;15.582;2023-04-25T01:43:56;5.10;;;2.67;;
75437;SDS011;64015;49.392;15.582;2023-04-25T01:46:22;7.43;;;2.60;;
75437;SDS011;64015;49.392;15.582;2023-04-25T01:48:47;4.90;;;2.83;;
75437;SDS011;64015;49.392;15.582;2023-04-25T01:51:13;5.03;;;2.75;;
75437;SDS011;64015;49.392;15.582;2023-04-25T01:53:40;7.20;;;3.30;;
75437;SDS011;64015;49.392;15.582;2023-04-25T01:56:06;6.05;;;2.63;;
75437;SDS011;64015;49.392;15.582;2023-04-25T01:58:32;5.32;;;2.33;;
75437;SDS011;64015;49.392;15.582;2023-04-25T02:00:58;6.75;;;2.95;;
75437;SDS011;64015;49.392;15.582;2023-04-25T02:03:24;6.38;;;3.25;;
75437;SDS011;64015;49.392;15.582;2023-04-25T02:05:49;6.50;;;3.00;;
75437;SDS011;64015;49.392;15.582;2023-04-25T02:08:16;4.82;;;3.00;;
75437;SDS011;64015;49.392;15.582;2023-04-25T02:10:42;5.78;;;3.15;;
75437;SDS011;64015;49.392;15.582;2023-04-25T02:13:07;7.13;;;3.10;;
75437;SDS011;64015;49.392;15.582;2023-04-25T02:15:33;5.85;;;3.20;;
75437;SDS011;64015;49.392;15.582;2023-04-25T02:17:59;6.85;;;3.38;;
75437;SDS011;64015;49.392;15.582;2023-04-25T02:20:28;5.97;;;3.20;;
75437;SDS011;64015;49.392;15.582;2023-04-25T02:22:55;6.75;;;3.05;;
75437;SDS011;64015;49.392;15.582;2023-04-25T02:25:21;6.03;;;2.90;;
75437;SDS011;64015;49.392;15.582;2023-04-25T02:27:47;8.23;;;3.65;;
75437;SDS011;64015;49.392;15.582;2023-04-25T02:30:14;6.40;;;3.03;;
75437;SDS011;64015;49.392;15.582;2023-04-25T02:32:40;7.38;;;4.10;;
75437;SDS011;64015;49.392;15.582;2023-04-25T02:35:06;6.35;;;3.45;;
75437;SDS011;64015;49.392;15.582;2023-04-25T02:37:33;6.45;;;3.30;;
75437;SDS011;64015;49.392;15.582;2023-04-25T02:42:25;6.53;;;3.60;;
75437;SDS011;64015;49.392;15.582;2023-04-25T02:44:52;8.27;;;3.92;;
75437;SDS011;64015;49.392;15.582;2023-04-25T02:47:17;6.70;;;3.40;;
75437;SDS011;64015;49.392;15.582;2023-04-25T02:49:43;6.35;;;3.72;;
75437;SDS011;64015;49.392;15.582;2023-04-25T02:52:08;7.07;;;3.80;;
75437;SDS011;64015;49.392;15.582;2023-04-25T02:54:34;6.28;;;3.65;;
75437;SDS011;64015;49.392;15.582;2023-04-25T02:57:00;7.20;;;3.95;;
75437;SDS011;64015;49.392;15.582;2023-04-25T03:01:53;9.90;;;4.07;;
75437;SDS011;64015;49.392;15.582;2023-04-25T03:04:19;6.65;;;4.18;;
75437;SDS011;64015;49.392;15.582;2023-04-25T03:06:46;7.38;;;3.83;;
75437;SDS011;64015;49.392;15.582;2023-04-25T03:09:12;9.60;;;4.47;;
75437;SDS011;64015;49.392;15.582;2023-04-25T03:11:40;8.05;;;4.30;;
75437;SDS011;64015;49.392;15.582;2023-04-25T03:14:06;8.98;;;4.50;;
75437;SDS011;64015;49.392;15.582;2023-04-25T03:16:32;7.68;;;4.50;;
75437;SDS011;64015;49.392;15.582;2023-04-25T03:18:58;11.25;;;4.95;;
75437;SDS011;64015;49.392;15.582;2023-04-25T03:21:23;10.13;;;4.57;;
75437;SDS011;64015;49.392;15.582;2023-04-25T03:23:50;7.15;;;4.18;;
75437;SDS011;64015;49.392;15.582;2023-04-25T03:26:16;10.95;;;4.55;;
75437;SDS011;64015;49.392;15.582;2023-04-25T03:28:41;9.32;;;4.80;;
75437;SDS011;64015;49.392;15.582;2023-04-25T03:31:07;7.97;;;4.55;;
75437;SDS011;64015;49.392;15.582;2023-04-25T03:33:33;12.82;;;5.30;;
75437;SDS011;64015;49.392;15.582;2023-04-25T03:35:58;9.38;;;5.10;;
75437;SDS011;64015;49.392;15.582;2023-04-25T03:38:24;10.45;;;4.30;;
75437;SDS011;64015;49.392;15.582;2023-04-25T03:40:51;10.73;;;5.25;;
75437;SDS011;64015;49.392;15.582;2023-04-25T03:43:18;9.60;;;5.55;;
75437;SDS011;64015;49.392;15.582;2023-04-25T03:45:43;10.10;;;5.35;;
75437;SDS011;64015;49.392;15.582;2023-04-25T03:48:09;8.80;;;4.70;;
75437;SDS011;64015;49.392;15.582;2023-04-25T03:50:35;9.73;;;4.43;;
75437;SDS011;64015;49.392;15.582;2023-04-25T03:53:01;10.57;;;5.00;;
75437;SDS011;64015;49.392;15.582;2023-04-25T03:55:26;10.45;;;5.55;;
75437;SDS011;64015;49.392;15.582;2023-04-25T03:57:52;10.77;;;5.25;;
75437;SDS011;64015;49.392;15.582;2023-04-25T04:00:17;10.32;;;5.20;;
75437;SDS011;64015;49.392;15.582;2023-04-25T04:02:43;9.98;;;5.25;;
75437;SDS011;64015;49.392;15.582;2023-04-25T04:05:09;10.32;;;5.22;;
75437;SDS011;64015;49.392;15.582;2023-04-25T04:07:35;9.65;;;5.00;;
75437;SDS011;64015;49.392;15.582;2023-04-25T04:10:05;10.43;;;5.05;;
75437;SDS011;64015;49.392;15.582;2023-04-25T04:12:32;9.30;;;4.40;;
75437;SDS011;64015;49.392;15.582;2023-04-25T04:14:58;9.70;;;5.05;;
75437;SDS011;64015;49.392;15.582;2023-04-25T04:17:24;11.20;;;5.80;;
75437;SDS011;64015;49.392;15.582;2023-04-25T04:19:50;10.93;;;5.57;;
75437;SDS011;64015;49.392;15.582;2023-04-25T04:22:16;8.32;;;4.20;;
75437;SDS011;64015;49.392;15.582;2023-04-25T04:24:41;10.68;;;5.30;;
75437;SDS011;64015;49.392;15.582;2023-04-25T04:27:11;11.35;;;5.20;;
75437;SDS011;64015;49.392;15.582;2023-04-25T04:29:38;10.60;;;5.35;;
75437;SDS011;64015;49.392;15.582;2023-04-25T04:32:07;9.73;;;4.88;;
75437;SDS011;64015;49.392;15.582;2023-04-25T04:34:34;7.47;;;4.60;;
75437;SDS011;64015;49.392;15.582;2023-04-25T04:37:00;8.98;;;4.88;;
75437;SDS011;64015;49.392;15.582;2023-04-25T04:39:26;7.45;;;4.03;;
75437;SDS011;64015;49.392;15.582;2023-04-25T04:41:52;9.48;;;5.22;;
75437;SDS011;64015;49.392;15.582;2023-04-25T04:44:18;8.68;;;4.93;;
75437;SDS011;64015;49.392;15.582;2023-04-25T04:46:44;9.50;;;4.70;;
75437;SDS011;64015;49.392;15.582;2023-04-25T04:49:10;10.13;;;4.47;;
75437;SDS011;64015;49.392;15.582;2023-04-25T04:51:37;8.77;;;4.82;;
75437;SDS011;64015;49.392;15.582;2023-04-25T04:54:03;7.82;;;4.20;;
75437;SDS011;64015;49.392;15.582;2023-04-25T04:56:30;8.18;;;4.53;;
75437;SDS011;64015;49.392;15.582;2023-04-25T04:58:58;10.82;;;4.32;;
75437;SDS011;64015;49.392;15.582;2023-04-25T05:01:24;9.15;;;4.28;;
75437;SDS011;64015;49.392;15.582;2023-04-25T05:03:51;9.40;;;4.63;;
75437;SDS011;64015;49.392;15.582;2023-04-25T05:06:20;9.48;;;5.15;;
75437;SDS011;64015;49.392;15.582;2023-04-25T05:08:46;9.32;;;4.63;;
75437;SDS011;64015;49.392;15.582;2023-04-25T05:11:12;9.55;;;5.25;;
75437;SDS011;64015;49.392;15.582;2023-04-25T05:13:37;8.82;;;4.80;;
75437;SDS011;64015;49.392;15.582;2023-04-25T05:16:03;10.63;;;4.70;;
75437;SDS011;64015;49.392;15.582;2023-04-25T05:18:29;8.77;;;4.40;;
75437;SDS011;64015;49.392;15.582;2023-04-25T05:20:55;8.52;;;4.38;;
75437;SDS011;64015;49.392;15.582;2023-04-25T05:23:20;9.07;;;5.03;;
75437;SDS011;64015;49.392;15.582;2023-04-25T05:25:46;8.32;;;4.47;;
75437;SDS011;64015;49.392;15.582;2023-04-25T05:28:12;9.43;;;5.20;;
75437;SDS011;64015;49.392;15.582;2023-04-25T05:30:39;7.93;;;4.53;;
75437;SDS011;64015;49.392;15.582;2023-04-25T05:33:05;9.18;;;4.20;;
75437;SDS011;64015;49.392;15.582;2023-04-25T05:35:31;10.15;;;4.72;;
75437;SDS011;64015;49.392;15.582;2023-04-25T05:37:56;7.22;;;4.68;;
75437;SDS011;64015;49.392;15.582;2023-04-25T05:40:22;9.90;;;4.78;;
75437;SDS011;64015;49.392;15.582;2023-04-25T05:42:47;8.48;;;5.05;;
75437;SDS011;64015;49.392;15.582;2023-04-25T05:45:13;10.07;;;4.53;;
75437;SDS011;64015;49.392;15.582;2023-04-25T05:47:39;7.00;;;4.20;;
75437;SDS011;64015;49.392;15.582;2023-04-25T05:50:05;5.95;;;4.10;;
75437;SDS011;64015;49.392;15.582;2023-04-25T05:52:31;6.95;;;3.83;;
75437;SDS011;64015;49.392;15.582;2023-04-25T05:54:57;8.65;;;4.40;;
75437;SDS011;64015;49.392;15.582;2023-04-25T05:57:24;8.88;;;5.40;;
75437;SDS011;64015;49.392;15.582;2023-04-25T05:59:51;9.45;;;4.78;;
75437;SDS011;64015;49.392;15.582;2023-04-25T06:02:18;7.32;;;4.07;;
75437;SDS011;64015;49.392;15.582;2023-04-25T06:04:44;10.30;;;5.10;;
75437;SDS011;64015;49.392;15.582;2023-04-25T06:07:10;7.07;;;3.78;;
75437;SDS011;64015;49.392;15.582;2023-04-25T06:09:36;13.02;;;5.10;;
75437;SDS011;64015;49.392;15.582;2023-04-25T06:12:02;11.00;;;5.43;;
75437;SDS011;64015;49.392;15.582;2023-04-25T06:14:27;9.85;;;4.63;;
75437;SDS011;64015;49.392;15.582;2023-04-25T06:16:53;7.10;;;4.07;;
75437;SDS011;64015;49.392;15.582;2023-04-25T06:19:19;8.70;;;4.53;;
75437;SDS011;64015;49.392;15.582;2023-04-25T06:21:44;9.00;;;4.75;;
75437;SDS011;64015;49.392;15.582;2023-04-25T06:24:10;8.25;;;4.35;;
75437;SDS011;64015;49.392;15.582;2023-04-25T06:26:36;9.38;;;4.47;;
75437;SDS011;64015;49.392;15.582;2023-04-25T06:29:02;8.55;;;5.20;;
75437;SDS011;64015;49.392;15.582;2023-04-25T06:31:27;10.10;;;4.82;;
75437;SDS011;64015;49.392;15.582;2023-04-25T06:33:54;11.15;;;4.30;;
75437;SDS011;64015;49.392;15.582;2023-04-25T06:36:22;7.93;;;5.10;;
75437;SDS011;64015;49.392;15.582;2023-04-25T06:38:53;8.13;;;4.82;;
75437;SDS011;64015;49.392;15.582;2023-04-25T06:41:19;9.43;;;4.38;;
75437;SDS011;64015;49.392;15.582;2023-04-25T06:43:45;8.27;;;3.92;;
75437;SDS011;64015;49.392;15.582;2023-04-25T06:46:11;8.52;;;5.20;;
75437;SDS011;64015;49.392;15.582;2023-04-25T06:48:37;9.77;;;4.60;;
75437;SDS011;64015;49.392;15.582;2023-04-25T06:51:03;7.20;;;4.70;;
75437;SDS011;64015;49.392;15.582;2023-04-25T06:53:29;9.25;;;5.28;;
75437;SDS011;64015;49.392;15.582;2023-04-25T06:55:57;7.88;;;4.43;;
75437;SDS011;64015;49.392;15.582;2023-04-25T06:58:22;10.13;;;4.85;;
75437;SDS011;64015;49.392;15.582;2023-04-25T07:00:48;7.93;;;4.20;;
75437;SDS011;64015;49.392;15.582;2023-04-25T07:03:13;10.80;;;4.93;;
75437;SDS011;64015;49.392;15.582;2023-04-25T07:05:40;8.98;;;5.82;;
75437;SDS011;64015;49.392;15.582;2023-04-25T07:08:05;8.43;;;5.45;;
75437;SDS011;64015;49.392;15.582;2023-04-25T07:10:31;8.05;;;5.28;;
75437;SDS011;64015;49.392;15.582;2023-04-25T07:12:57;9.27;;;5.13;;
75437;SDS011;64015;49.392;15.582;2023-04-25T07:15:23;8.80;;;5.20;;
75437;SDS011;64015;49.392;15.582;2023-04-25T07:17:48;7.57;;;4.78;;
75437;SDS011;64015;49.392;15.582;2023-04-25T07:20:14;8.60;;;5.28;;
75437;SDS011;64015;49.392;15.582;2023-04-25T07:22:41;8.77;;;4.78;;
75437;SDS011;64015;49.392;15.582;2023-04-25T07:25:07;9.02;;;4.88;;
75437;SDS011;64015;49.392;15.582;2023-04-25T07:27:33;8.65;;;5.35;;
75437;SDS011;64015;49.392;15.582;2023-04-25T07:29:59;8.68;;;4.30;;
75437;SDS011;64015;49.392;15.582;2023-04-25T07:32:25;9.68;;;4.93;;
75437;SDS011;64015;49.392;15.582;2023-04-25T07:34:56;8.35;;;4.97;;
75437;SDS011;64015;49.392;15.582;2023-04-25T07:37:32;10.70;;;5.43;;
75437;SDS011;64015;49.392;15.582;2023-04-25T07:39:58;10.05;;;5.47;;
75437;SDS011;64015;49.392;15.582;2023-04-25T07:42:24;9.55;;;5.03;;
75437;SDS011;64015;49.392;15.582;2023-04-25T07:44:50;7.03;;;4.90;;
75437;SDS011;64015;49.392;15.582;2023-04-25T07:47:16;8.68;;;3.88;;
75437;SDS011;64015;49.392;15.582;2023-04-25T07:49:44;8.30;;;3.58;;
75437;SDS011;64015;49.392;15.582;2023-04-25T07:52:10;8.23;;;4.50;;
75437;SDS011;64015;49.392;15.582;2023-04-25T07:54:42;6.78;;;4.43;;
75437;SDS011;64015;49.392;15.582;2023-04-25T07:57:08;6.72;;;4.10;;
75437;SDS011;64015;49.392;15.582;2023-04-25T07:59:34;7.68;;;3.65;;
75437;SDS011;64015;49.392;15.582;2023-04-25T08:02:00;7.50;;;3.67;;
75437;SDS011;64015;49.392;15.582;2023-04-25T08:04:26;7.15;;;4.55;;
75437;SDS011;64015;49.392;15.582;2023-04-25T08:06:51;6.72;;;3.45;;
75437;SDS011;64015;49.392;15.582;2023-04-25T08:11:45;5.78;;;3.65;;
75437;SDS011;64015;49.392;15.582;2023-04-25T08:14:11;6.43;;;3.20;;
75437;SDS011;64015;49.392;15.582;2023-04-25T08:16:37;6.20;;;3.03;;
75437;SDS011;64015;49.392;15.582;2023-04-25T08:19:05;6.07;;;3.72;;
75437;SDS011;64015;49.392;15.582;2023-04-25T08:21:31;6.18;;;4.00;;
75437;SDS011;64015;49.392;15.582;2023-04-25T08:23:58;7.82;;;4.03;;
75437;SDS011;64015;49.392;15.582;2023-04-25T08:26:24;7.78;;;4.35;;
75437;SDS011;64015;49.392;15.582;2023-04-25T08:28:50;5.50;;;3.53;;
75437;SDS011;64015;49.392;15.582;2023-04-25T08:31:16;7.30;;;4.15;;
75437;SDS011;64015;49.392;15.582;2023-04-25T08:33:42;5.63;;;4.13;;
75437;SDS011;64015;49.392;15.582;2023-04-25T08:36:08;5.72;;;3.47;;
75437;SDS011;64015;49.392;15.582;2023-04-25T08:38:35;5.68;;;3.78;;
75437;SDS011;64015;49.392;15.582;2023-04-25T08:41:01;7.85;;;4.55;;
75437;SDS011;64015;49.392;15.582;2023-04-25T08:43:28;5.90;;;3.85;;
75437;SDS011;64015;49.392;15.582;2023-04-25T08:45:59;11.25;;;6.40;;
75437;SDS011;64015;49.392;15.582;2023-04-25T08:48:29;14.65;;;5.95;;
75437;SDS011;64015;49.392;15.582;2023-04-25T08:50:58;8.80;;;5.00;;
75437;SDS011;64015;49.392;15.582;2023-04-25T08:53:28;9.23;;;4.50;;
75437;SDS011;64015;49.392;15.582;2023-04-25T08:55:59;9.52;;;5.07;;
75437;SDS011;64015;49.392;15.582;2023-04-25T08:58:29;10.35;;;4.68;;
75437;SDS011;64015;49.392;15.582;2023-04-25T09:00:55;7.38;;;4.78;;
75437;SDS011;64015;49.392;15.582;2023-04-25T09:03:21;6.40;;;4.07;;
75437;SDS011;64015;49.392;15.582;2023-04-25T09:05:53;6.78;;;3.65;;
75437;SDS011;64015;49.392;15.582;2023-04-25T09:08:21;6.43;;;3.88;;
75437;SDS011;64015;49.392;15.582;2023-04-25T09:10:46;7.43;;;4.40;;
75437;SDS011;64015;49.392;15.582;2023-04-25T09:13:13;7.57;;;4.63;;
75437;SDS011;64015;49.392;15.582;2023-04-25T09:15:47;8.85;;;4.45;;
75437;SDS011;64015;49.392;15.582;2023-04-25T09:20:53;6.95;;;3.35;;
75437;SDS011;64015;49.392;15.582;2023-04-25T09:23:21;3.10;;;1.90;;
75437;SDS011;64015;49.392;15.582;2023-04-25T09:25:48;6.15;;;3.33;;
75437;SDS011;64015;49.392;15.582;2023-04-25T09:28:15;5.45;;;3.55;;
75437;SDS011;64015;49.392;15.582;2023-04-25T09:30:41;7.43;;;4.30;;
75437;SDS011;64015;49.392;15.582;2023-04-25T09:33:08;6.93;;;3.67;;
75437;SDS011;64015;49.392;15.582;2023-04-25T09:35:39;7.03;;;3.70;;
75437;SDS011;64015;49.392;15.582;2023-04-25T09:38:11;5.60;;;3.10;;
75437;SDS011;64015;49.392;15.582;2023-04-25T09:40:41;6.22;;;3.72;;
75437;SDS011;64015;49.392;15.582;2023-04-25T09:43:09;9.18;;;5.40;;
75437;SDS011;64015;49.392;15.582;2023-04-25T09:45:41;6.60;;;4.30;;
75437;SDS011;64015;49.392;15.582;2023-04-25T09:48:11;9.60;;;4.65;;
75437;SDS011;64015;49.392;15.582;2023-04-25T09:50:38;6.93;;;4.43;;
75437;SDS011;64015;49.392;15.582;2023-04-25T09:53:05;5.47;;;3.58;;
75437;SDS011;64015;49.392;15.582;2023-04-25T09:55:31;8.15;;;3.47;;
75437;SDS011;64015;49.392;15.582;2023-04-25T09:58:04;6.30;;;3.42;;
75437;SDS011;64015;49.392;15.582;2023-04-25T10:00:32;6.32;;;3.72;;
75437;SDS011;64015;49.392;15.582;2023-04-25T10:02:59;5.97;;;3.28;;
75437;SDS011;64015;49.392;15.582;2023-04-25T10:05:29;7.03;;;3.75;;
75437;SDS011;64015;49.392;15.582;2023-04-25T10:07:58;4.85;;;2.90;;
75437;SDS011;64015;49.392;15.582;2023-04-25T10:10:27;5.22;;;3.17;;
75437;SDS011;64015;49.392;15.582;2023-04-25T10:12:53;4.72;;;2.92;;
75437;SDS011;64015;49.392;15.582;2023-04-25T10:15:20;4.28;;;2.50;;
75437;SDS011;64015;49.392;15.582;2023-04-25T10:20:14;5.00;;;2.40;;
75437;SDS011;64015;49.392;15.582;2023-04-25T10:22:42;3.65;;;2.75;;
75437;SDS011;64015;49.392;15.582;2023-04-25T10:25:09;4.70;;;3.22;;
75437;SDS011;64015;49.392;15.582;2023-04-25T10:27:35;6.93;;;3.53;;
75437;SDS011;64015;49.392;15.582;2023-04-25T10:30:09;4.82;;;2.85;;
75437;SDS011;64015;49.392;15.582;2023-04-25T10:32:39;6.53;;;3.08;;
75437;SDS011;64015;49.392;15.582;2023-04-25T10:40:25;3.72;;;2.22;;
75437;SDS011;64015;49.392;15.582;2023-04-25T10:42:52;3.63;;;2.17;;
75437;SDS011;64015;49.392;15.582;2023-04-25T10:45:19;3.10;;;2.20;;
75437;SDS011;64015;49.392;15.582;2023-04-25T10:47:45;3.22;;;2.30;;
75437;SDS011;64015;49.392;15.582;2023-04-25T10:50:11;4.50;;;2.53;;
75437;SDS011;64015;49.392;15.582;2023-04-25T10:52:41;3.35;;;2.20;;
75437;SDS011;64015;49.392;15.582;2023-04-25T10:55:06;3.75;;;2.00;;
75437;SDS011;64015;49.392;15.582;2023-04-25T10:57:40;3.15;;;2.33;;
75437;SDS011;64015;49.392;15.582;2023-04-25T11:00:16;2.92;;;2.10;;
75437;SDS011;64015;49.392;15.582;2023-04-25T11:02:45;3.13;;;1.92;;
75437;SDS011;64015;49.392;15.582;2023-04-25T11:08:11;3.05;;;1.73;;
75437;SDS011;64015;49.392;15.582;2023-04-25T11:10:36;3.10;;;1.17;;
75437;SDS011;64015;49.392;15.582;2023-04-25T11:13:05;2.75;;;1.33;;
75437;SDS011;64015;49.392;15.582;2023-04-25T11:15:35;2.83;;;1.52;;
75437;SDS011;64015;49.392;15.582;2023-04-25T11:18:07;1.98;;;1.10;;
75437;SDS011;64015;49.392;15.582;2023-04-25T11:20:33;2.45;;;1.50;;
75437;SDS011;64015;49.392;15.582;2023-04-25T11:22:58;2.67;;;1.73;;
75437;SDS011;64015;49.392;15.582;2023-04-25T11:25:25;2.30;;;1.38;;
75437;SDS011;64015;49.392;15.582;2023-04-25T11:30:18;2.30;;;1.23;;
75437;SDS011;64015;49.392;15.582;2023-04-25T11:32:44;1.90;;;1.15;;
75437;SDS011;64015;49.392;15.582;2023-04-25T11:35:10;1.85;;;0.98;;
75437;SDS011;64015;49.392;15.582;2023-04-25T11:37:40;2.35;;;1.20;;
75437;SDS011;64015;49.392;15.582;2023-04-25T11:40:06;2.88;;;1.85;;
75437;SDS011;64015;49.392;15.582;2023-04-25T11:42:45;2.38;;;1.60;;
75437;SDS011;64015;49.392;15.582;2023-04-25T11:45:11;2.58;;;1.73;;
75437;SDS011;64015;49.392;15.582;2023-04-25T11:47:38;3.30;;;1.67;;
75437;SDS011;64015;49.392;15.582;2023-04-25T11:50:05;3.47;;;2.00;;
75437;SDS011;64015;49.392;15.582;2023-04-25T11:52:39;4.15;;;2.10;;
75437;SDS011;64015;49.392;15.582;2023-04-25T11:55:08;3.20;;;1.90;;
75437;SDS011;64015;49.392;15.582;2023-04-25T11:57:38;2.80;;;1.73;;
75437;SDS011;64015;49.392;15.582;2023-04-25T12:00:09;3.28;;;2.00;;
75437;SDS011;64015;49.392;15.582;2023-04-25T12:02:44;3.35;;;2.03;;
75437;SDS011;64015;49.392;15.582;2023-04-25T12:05:11;3.97;;;1.75;;
75437;SDS011;64015;49.392;15.582;2023-04-25T12:07:38;2.83;;;1.73;;
75437;SDS011;64015;49.392;15.582;2023-04-25T12:10:07;4.00;;;1.80;;
75437;SDS011;64015;49.392;15.582;2023-04-25T12:12:35;2.47;;;1.60;;
75437;SDS011;64015;49.392;15.582;2023-04-25T12:15:08;5.80;;;2.10;;
75437;SDS011;64015;49.392;15.582;2023-04-25T12:17:50;3.42;;;2.10;;
75437;SDS011;64015;49.392;15.582;2023-04-25T12:20:21;3.72;;;2.00;;
75437;SDS011;64015;49.392;15.582;2023-04-25T12:22:50;5.63;;;2.65;;
75437;SDS011;64015;49.392;15.582;2023-04-25T12:28:22;2.45;;;1.80;;
75437;SDS011;64015;49.392;15.582;2023-04-25T12:33:29;3.78;;;1.85;;
75437;SDS011;64015;49.392;15.582;2023-04-25T12:35:56;3.97;;;1.70;;
75437;SDS011;64015;49.392;15.582;2023-04-25T12:38:24;3.65;;;1.50;;
75437;SDS011;64015;49.392;15.582;2023-04-25T12:40:51;2.58;;;1.50;;
75437;SDS011;64015;49.392;15.582;2023-04-25T12:43:18;3.05;;;1.80;;
75437;SDS011;64015;49.392;15.582;2023-04-25T12:45:44;3.22;;;1.85;;
75437;SDS011;64015;49.392;15.582;2023-04-25T12:48:10;3.22;;;1.42;;
75437;SDS011;64015;49.392;15.582;2023-04-25T12:50:36;2.83;;;1.02;;
75437;SDS011;64015;49.392;15.582;2023-04-25T12:53:02;3.97;;;1.63;;
75437;SDS011;64015;49.392;15.582;2023-04-25T12:55:30;3.33;;;1.98;;
75437;SDS011;64015;49.392;15.582;2023-04-25T12:57:56;2.85;;;1.90;;
75437;SDS011;64015;49.392;15.582;2023-04-25T13:00:22;3.25;;;1.77;;
75437;SDS011;64015;49.392;15.582;2023-04-25T13:02:48;5.85;;;2.85;;
75437;SDS011;64015;49.392;15.582;2023-04-25T13:05:13;2.97;;;1.77;;
75437;SDS011;64015;49.392;15.582;2023-04-25T13:07:39;3.97;;;2.13;;
75437;SDS011;64015;49.392;15.582;2023-04-25T13:10:06;3.35;;;1.90;;
75437;SDS011;64015;49.392;15.582;2023-04-25T13:12:33;4.78;;;2.20;;
75437;SDS011;64015;49.392;15.582;2023-04-25T13:14:58;3.67;;;2.00;;
75437;SDS011;64015;49.392;15.582;2023-04-25T13:17:24;3.90;;;2.22;;
75437;SDS011;64015;49.392;15.582;2023-04-25T13:19:56;7.65;;;2.25;;
75437;SDS011;64015;49.392;15.582;2023-04-25T13:22:21;3.08;;;1.92;;
75437;SDS011;64015;49.392;15.582;2023-04-25T13:24:47;2.65;;;1.70;;
75437;SDS011;64015;49.392;15.582;2023-04-25T13:27:13;3.60;;;2.17;;
75437;SDS011;64015;49.392;15.582;2023-04-25T13:29:38;3.42;;;1.77;;
75437;SDS011;64015;49.392;15.582;2023-04-25T13:32:06;6.28;;;2.47;;
75437;SDS011;64015;49.392;15.582;2023-04-25T13:34:34;4.55;;;2.28;;
75437;SDS011;64015;49.392;15.582;2023-04-25T13:37:00;4.45;;;2.45;;
75437;SDS011;64015;49.392;15.582;2023-04-25T13:39:25;4.00;;;2.50;;
75437;SDS011;64015;49.392;15.582;2023-04-25T13:41:51;3.40;;;2.15;;
75437;SDS011;64015;49.392;15.582;2023-04-25T13:44:17;3.75;;;2.15;;
75437;SDS011;64015;49.392;15.582;2023-04-25T13:46:42;4.63;;;2.40;;
75437;SDS011;64015;49.392;15.582;2023-04-25T13:49:08;3.08;;;1.67;;
75437;SDS011;64015;49.392;15.582;2023-04-25T13:51:34;4.68;;;2.30;;
75437;SDS011;64015;49.392;15.582;2023-04-25T13:54:00;3.80;;;2.40;;
75437;SDS011;64015;49.392;15.582;2023-04-25T13:56:26;3.00;;;1.75;;
75437;SDS011;64015;49.392;15.582;2023-04-25T13:58:52;3.08;;;1.90;;
75437;SDS011;64015;49.392;15.582;2023-04-25T14:01:18;10.38;;;4.88;;
75437;SDS011;64015;49.392;15.582;2023-04-25T14:03:44;3.30;;;1.98;;
75437;SDS011;64015;49.392;15.582;2023-04-25T14:06:10;3.50;;;2.30;;
75437;SDS011;64015;49.392;15.582;2023-04-25T14:08:38;3.38;;;2.00;;
75437;SDS011;64015;49.392;15.582;2023-04-25T14:11:04;2.70;;;1.80;;
75437;SDS011;64015;49.392;15.582;2023-04-25T14:13:30;4.03;;;2.45;;
75437;SDS011;64015;49.392;15.582;2023-04-25T14:15:55;3.90;;;2.60;;
75437;SDS011;64015;49.392;15.582;2023-04-25T14:18:21;5.18;;;2.85;;
75437;SDS011;64015;49.392;15.582;2023-04-25T14:20:47;6.15;;;3.15;;
75437;SDS011;64015;49.392;15.582;2023-04-25T14:23:13;3.47;;;2.28;;
75437;SDS011;64015;49.392;15.582;2023-04-25T14:25:39;3.53;;;2.20;;
75437;SDS011;64015;49.392;15.582;2023-04-25T14:28:07;3.70;;;2.70;;
75437;SDS011;64015;49.392;15.582;2023-04-25T14:30:33;3.53;;;2.30;;
75437;SDS011;64015;49.392;15.582;2023-04-25T14:32:58;4.85;;;2.47;;
75437;SDS011;64015;49.392;15.582;2023-04-25T14:35:24;3.42;;;1.75;;
75437;SDS011;64015;49.392;15.582;2023-04-25T14:37:50;4.50;;;2.63;;
75437;SDS011;64015;49.392;15.582;2023-04-25T14:40:16;3.75;;;2.33;;
75437;SDS011;64015;49.392;15.582;2023-04-25T14:42:42;4.50;;;2.78;;
75437;SDS011;64015;49.392;15.582;2023-04-25T14:45:08;8.98;;;4.45;;
75437;SDS011;64015;49.392;15.582;2023-04-25T14:47:35;3.83;;;2.55;;
75437;SDS011;64015;49.392;15.582;2023-04-25T14:50:02;5.13;;;3.17;;
75437;SDS011;64015;49.392;15.582;2023-04-25T14:52:27;5.00;;;3.40;;
75437;SDS011;64015;49.392;15.582;2023-04-25T14:54:54;6.20;;;3.45;;
75437;SDS011;64015;49.392;15.582;2023-04-25T14:57:19;6.68;;;3.72;;
75437;SDS011;64015;49.392;15.582;2023-04-25T14:59:45;5.45;;;3.60;;
75437;SDS011;64015;49.392;15.582;2023-04-25T15:02:11;5.20;;;3.33;;